Flight Track Log - Related Links

Times and Time Zones

All times are in EDT time to prevent confusion due to time zone crossing. See the EZY6876 flight status page for this flight to view local times or setup timezone preferences in your user account.

Time Position Orientation Groundspeed Altitude Reporting Facility
EDT Latitude Longitude Course Direction KTS MPH feet Rate Location/Type
Fri 08:00:00 AM 39.2624 -0.7166 353° North  Level Estimated
Fri 08:01:00 AM 39.3604 -0.7327 353° North  Level Estimated
Fri 08:02:00 AM 39.4584 -0.7488 353° North  Level Estimated
Fri 08:03:00 AM 39.5564 -0.7650 353° North  Level Estimated
Fri 08:04:00 AM 39.6544 -0.7812 353° North  Level Estimated
Fri 08:05:00 AM 39.7524 -0.7975 353° North  Level Estimated
Fri 08:06:00 AM 39.8504 -0.8138 353° North  Level Estimated
Fri 08:07:00 AM 39.9484 -0.8301 353° North  Level Estimated
Fri 08:08:00 AM 40.0463 -0.8465 353° North  Level Estimated
Fri 08:09:00 AM 40.1443 -0.8630 353° North  Level Estimated
Fri 08:10:00 AM 40.2463 -0.8802 353° North  Level Estimated
Fri 08:11:00 AM 40.3482 -0.8974 353° North  Level Estimated
Fri 08:12:00 AM 40.4502 -0.9147 353° North  Level Estimated
Fri 08:13:00 AM 40.5521 -0.9320 353° North  Level Estimated
Fri 08:14:00 AM 40.6541 -0.9494 353° North  Level Estimated
Fri 08:15:00 AM 40.7560 -0.9668 353° North  Level Estimated
Fri 08:16:00 AM 40.8579 -0.9843 353° North  Level Estimated
Fri 08:17:00 AM 40.9599 -1.0018 353° North  Level Estimated
Fri 08:18:00 AM 41.0618 -1.0194 353° North  Level Estimated
Fri 08:19:00 AM 41.1637 -1.0371 353° North  Level Estimated
Fri 08:20:00 AM 41.2657 -1.0548 353° North  Level Estimated
Fri 08:21:00 AM 41.3676 -1.0725 353° North  Level Estimated
Fri 08:22:00 AM 41.4695 -1.0904 353° North  Level Estimated
Fri 08:23:00 AM 41.5714 -1.1082 353° North  Level Estimated
Fri 08:24:00 AM 41.6733 -1.1262 353° North  Level Estimated
Fri 08:25:00 AM 41.7752 -1.1441 353° North  Level Estimated
Fri 08:26:00 AM 41.8772 -1.1622 352° North  Level Estimated
Fri 08:27:00 AM 41.9791 -1.1803 352° North  Level Estimated
Fri 08:28:00 AM 42.0810 -1.1984 352° North  Level Estimated
Fri 08:29:00 AM 42.1829 -1.2167 352° North  Level Estimated
Fri 08:30:00 AM 42.2848 -1.2349 352° North  Level Estimated
Fri 08:31:00 AM 42.3867 -1.2533 352° North  Level Estimated
Fri 08:32:00 AM 42.4885 -1.2717 352° North  Level Estimated
Fri 08:33:00 AM 42.5904 -1.2901 352° North  Level Estimated
Fri 08:34:00 AM 42.6923 -1.3086 352° North  Level Estimated
Fri 08:35:00 AM 42.7942 -1.3272 352° North  Level Estimated
Fri 08:36:00 AM 42.8961 -1.3458 352° North  Level Estimated
Fri 08:37:00 AM 42.9980 -1.3645 352° North  Level Estimated
Fri 08:38:00 AM 43.0998 -1.3833 352° North  Level Estimated
Fri 08:39:00 AM 43.2017 -1.4021 352° North  Level Estimated
Fri 08:40:00 AM 43.3036 -1.4210 352° North  Level Estimated
Fri 08:41:00 AM 43.4054 -1.4400 352° North  Level Estimated
Fri 08:42:00 AM 43.5073 -1.4590 352° North  Level Estimated
Fri 08:43:00 AM 43.6092 -1.4780 352° North  Level Estimated
Fri 08:44:00 AM 43.7110 -1.4972 352° North  Level Estimated
Fri 08:45:00 AM 43.8129 -1.5164 352° North  Level Estimated
Fri 08:46:00 AM 43.9147 -1.5357 352° North  Level Estimated
Fri 08:47:00 AM 44.0165 -1.5550 352° North  Level Estimated
Fri 08:48:00 AM 44.1184 -1.5744 352° North  Level Estimated
Fri 08:49:00 AM 44.2202 -1.5939 352° North  Level Estimated
Fri 08:50:00 AM 44.3221 -1.6134 352° North  Level Estimated
Fri 08:51:00 AM 44.4239 -1.6330 352° North  Level Estimated
Fri 08:52:00 AM 44.5257 -1.6527 352° North  Level Estimated
Fri 08:53:00 AM 44.6275 -1.6725 352° North  Level Estimated
Fri 08:54:00 AM 44.7294 -1.6923 352° North  Level Estimated
Fri 08:55:00 AM 44.8312 -1.7122 352° North  Level Estimated
Fri 08:56:00 AM 44.9330 -1.7321 352° North  Level Estimated
Fri 08:57:00 AM 45.0348 -1.7522 352° North  Level Estimated
Fri 08:58:00 AM 45.1366 -1.7723 352° North  Level Estimated
Fri 08:59:00 AM 45.2384 -1.7924 352° North  Level Estimated
Fri 09:00:00 AM 45.3402 -1.8127 352° North  Level Estimated
Fri 09:01:00 AM 45.4420 -1.8330 352° North  Level Estimated
Fri 09:02:00 AM 45.5438 -1.8534 352° North  Level Estimated
Fri 09:03:00 AM 45.6456 -1.8738 352° North  Level Estimated
Fri 09:04:00 AM 45.7474 -1.8944 352° North  Level Estimated
Fri 09:05:00 AM 45.8492 -1.9150 352° North  Level Estimated
Fri 09:06:00 AM 45.9509 -1.9357 352° North  Level Estimated
Fri 09:07:00 AM 46.0527 -1.9564 352° North  Level Estimated
Fri 09:08:00 AM 46.1545 -1.9773 352° North  Level Estimated
Fri 09:09:00 AM 46.2562 -1.9982 352° North  Level Estimated
Fri 09:10:00 AM 46.3580 -2.0192 352° North  Level Estimated
Fri 09:11:00 AM 46.4598 -2.0402 352° North  Level Estimated
Fri 09:12:00 AM 46.5615 -2.0614 352° North  Level Estimated
Fri 09:13:00 AM 46.6633 -2.0826 352° North  Level Estimated
Fri 09:14:00 AM 46.7650 -2.1039 352° North  Level Estimated
Fri 09:15:00 AM 46.8668 -2.1253 352° North  Level Estimated
Fri 09:16:00 AM 46.9685 -2.1468 352° North  Level Estimated
Fri 09:17:00 AM 47.0703 -2.1683 352° North  Level Estimated
Fri 09:18:00 AM 47.1720 -2.1900 352° North  Level Estimated
Fri 09:19:00 AM 47.2737 -2.2117 352° North  Level Estimated
Fri 09:20:00 AM 47.3754 -2.2335 352° North  Level Estimated
Fri 09:21:00 AM 47.4771 -2.2554 352° North  Level Estimated
Fri 09:22:00 AM 47.5789 -2.2774 352° North  Level Estimated
Fri 09:23:00 AM 47.6806 -2.2994 352° North  Level Estimated
Fri 09:24:00 AM 47.7823 -2.3216 352° North  Level Estimated
Fri 09:25:00 AM 47.8840 -2.3438 352° North  Level Estimated
Fri 09:26:00 AM 47.9857 -2.3661 352° North  Level Estimated
Fri 09:27:00 AM 48.0874 -2.3885 352° North  Level Estimated
Fri 09:28:00 AM 48.1891 -2.4110 352° North  Level Estimated
Fri 09:29:00 AM 48.2907 -2.4336 352° North  Level Estimated
Fri 09:30:00 AM 48.3924 -2.4563 352° North  Level Estimated
Fri 09:31:00 AM 48.4941 -2.4791 352° North  Level Estimated
Fri 09:32:00 AM 48.5958 -2.5019 352° North  Level Estimated
Fri 09:33:00 AM 48.6974 -2.5249 352° North  Level Estimated
Fri 09:34:00 AM 48.7991 -2.5479 352° North  Level Estimated
Fri 09:35:00 AM 48.9008 -2.5711 351° North  Level Estimated
Fri 09:36:00 AM 49.0024 -2.5943 351° North  Level Estimated
Fri 09:37:00 AM 49.1041 -2.6176 351° North  Level Estimated
Fri 09:38:00 AM 49.2057 -2.6411 351° North  Level Estimated
Fri 09:39:00 AM 49.3074 -2.6646 351° North  Level Estimated
Fri 09:40:00 AM 49.4090 -2.6882 351° North  Level Estimated
Fri 09:41:00 AM 49.5106 -2.7119 351° North  Level Estimated
Fri 09:42:00 AM 49.6122 -2.7357 351° North  Level Estimated
Fri 09:43:00 AM 49.7138 -2.7596 351° North  Level Estimated
Fri 09:44:00 AM 49.8155 -2.7836 351° North  Level Estimated
Fri 09:45:00 AM 49.9171 -2.8077 351° North  Level Estimated
Fri 09:46:00 AM 50.0187 -2.8320 351° North  Level Estimated
Fri 09:47:00 AM 50.1203 -2.8563 351° North  Level Estimated
Fri 09:48:00 AM 50.2219 -2.8807 351° North  Level Estimated
Fri 09:49:00 AM 50.3234 -2.9052 351° North  Level Estimated
Fri 09:50:00 AM 50.4250 -2.9299 351° North  Level Estimated
Fri 09:51:00 AM 50.5266 -2.9546 351° North  Level Estimated
Fri 09:52:00 AM 50.6282 -2.9794 351° North  Level Estimated
Fri 09:53:00 AM 50.7298 -3.0044 351° North  Level Estimated
Fri 09:54:00 AM 50.8313 -3.0294 351° North  Level Estimated
Fri 09:55:00 AM 50.9329 -3.0546 351° North  Level Estimated
Fri 09:56:00 AM 51.0344 -3.0799 351° North  Level Estimated
Fri 09:57:00 AM 51.1360 -3.1053 351° North  Level Estimated
Fri 09:58:00 AM 51.2375 -3.1308 351° North  Level Estimated
Fri 09:59:00 AM 51.3391 -3.1564 351° North  Level Estimated
Fri 10:00:00 AM 51.4406 -3.1821 351° North  Level Estimated
Fri 10:01:00 AM 51.5421 -3.2080 351° North  Level Estimated
Fri 10:02:00 AM 51.6436 -3.2339 351° North  Level Estimated
Fri 10:03:00 AM 51.7451 -3.2600 351° North  Level Estimated
Fri 10:04:00 AM 51.8466 -3.2862 351° North  Level Estimated
Fri 10:05:00 AM 51.9481 -3.3125 351° North  Level Estimated
Fri 10:06:00 AM 52.0496 -3.3389 351° North  Level Estimated
Fri 10:07:00 AM 52.1511 -3.3655 351° North  Level Estimated
Fri 10:08:00 AM 52.2526 -3.3921 351° North  Level Estimated
Fri 10:09:00 AM 52.3541 -3.4189 351° North  Level Estimated
Fri 10:10:00 AM 52.4556 -3.4459 351° North  Level Estimated
Fri 10:11:00 AM 52.5570 -3.4729 351° North  Level Estimated
Fri 10:12:00 AM 52.6585 -3.5001 351° North  Level Estimated
Fri 10:13:00 AM 52.7599 -3.5274 351° North  Level Estimated
Fri 10:14:00 AM 52.8614 -3.5548 351° North  Level Estimated
Fri 10:15:00 AM 52.9628 -3.5823 351° North  Level Estimated
Fri 10:16:00 AM 53.0643 -3.6100 351° North  Level Estimated
Fri 10:17:00 AM 53.1657 -3.6378 351° North  Level Estimated
Fri 10:18:00 AM 53.2671 -3.6658 351° North  Level Estimated
Fri 10:19:00 AM 53.3734 -3.6952 351° North  Level Estimated
Fri 10:20:00 AM 53.4798 -3.7248 351° North  Level Estimated
Fri 10:21:00 AM 53.5861 -3.7545 351° North  Level Estimated
Fri 10:22:00 AM 53.6924 -3.7844 351° North  Level Estimated
Fri 10:23:00 AM 53.7987 -3.8145 351° North  Level Estimated
Fri 10:24:00 AM 53.9050 -3.8446 351° North  Level Estimated
Fri 10:25:00 AM 54.0113 -3.8750 350° North  Level Estimated
Fri 10:26:00 AM 54.1175 -3.9055 350° North  Level Estimated
Fri 10:27:00 AM 54.2238 -3.9361 350° North  Level Estimated
Fri 10:28:00 AM 54.3301 -3.9669 350° North  Level Estimated
Fri 10:29:00 AM 54.4363 -3.9979 350° North  Level Estimated
Fri 10:30:00 AM 54.5426 -4.0290 350° North  Level Estimated
Fri 10:31:00 AM 54.6488 -4.0603 350° North  Level Estimated
Fri 10:32:00 AM 54.7551 -4.0918 350° North  Level Estimated
Fri 10:33:00 AM 54.8613 -4.1234 350° North  Level Estimated
Fri 10:34:00 AM 54.9675 -4.1552 350° North  Level Estimated
Fri 10:35:00 AM 55.0737 -4.1872 350° North  Level Estimated
Fri 10:36:00 AM 55.1799 -4.2193 350° North  Level Estimated
Fri 10:37:00 AM 55.2861 -4.2516 350° North  Level Estimated
Fri 10:38:00 AM 55.3923 -4.2841 350° North  Level Estimated
Fri 10:39:00 AM 55.4984 -4.3168 350° North  Level Estimated
Fri 10:40:00 AM 55.6046 -4.3496 350° North  Level Estimated
Fri 10:41:00 AM 55.7108 -4.3826 350° North  Level Estimated
Fri 10:42:00 AM 55.8169 -4.4158 350° North  Level Estimated
Fri 10:43:00 AM 55.8719 -4.4331 350° North  Level Estimated
Fri 10:44:00 AM 55.8719 -4.4331 29° Northeast  Level Estimated
Fri 10:45:00 AM 55.8719 -4.4331 29° Northeast  Level Estimated
Fri 10:46:00 AM 55.8719 -4.4331 29° Northeast  Level Estimated
Fri 10:47:00 AM 55.8719 -4.4331 29° Northeast  Level Estimated
Fri 10:48:00 AM 55.8719 -4.4331 29° Northeast  Level Estimated

Login

Don't have an account? Register now (free) for customized features, flight alerts, and more!